Rutland, New York
Current Conditions -  °F | °C
As of 10:58 PM on Tuesday 21 Oct 2014 (Local Time) from KGTB Reporting Station
Overcast Overcast  
Wind Chill: 37°   Ceiling: 700
Heat Index: 43°   Visibility: 10mi
Dew Point: 43°   Wind: 12mph
Humidity: 100%   Direction: 50°NE
Pressure: 30.08"   Gusts: NA
Location:  44.0196°N, 75.7452°W
Report Text: KGTB 220258Z AUTO 05010KT 10SM OVC007 06/06 A3008 RMK AO2 SLP190 P0000 60000 52020
Loading
Personal Weather Stations






























Interactive Weather Map
Tropical Storm Tracking
New forecast layout! Learn more

10-Day Weather Forecast

Advertisements
Track Severe Weather on mobile